createdAt,value
2022-12-13T00:00:39.880Z,94151.13
2022-12-13T00:03:44.410Z,94149.22
2022-12-13T00:06:48.484Z,94142.84
2022-12-13T00:09:52.434Z,94153.03
2022-12-13T00:12:56.023Z,94157.50
2022-12-13T00:16:01.525Z,94153.56
2022-12-13T00:19:05.463Z,94155.09
2022-12-13T00:22:09.566Z,94161.84
2022-12-13T00:25:13.505Z,94157.53
2022-12-13T00:28:18.678Z,94159.03
2022-12-13T00:31:56.824Z,94166.31
2022-12-13T00:34:48.931Z,94172.38
2022-12-13T00:37:52.734Z,94163.88
2022-12-13T00:40:57.116Z,94155.22
2022-12-13T00:44:01.520Z,94161.25
2022-12-13T00:47:05.524Z,94161.97
2022-12-13T00:50:09.626Z,94164.78
2022-12-13T00:53:13.713Z,94174.72
2022-12-13T00:56:21.820Z,94180.31
2022-12-13T00:59:25.703Z,94182.00
2022-12-13T01:02:29.569Z,94192.38
2022-12-13T01:06:12.943Z,94197.41
2022-12-13T01:08:59.886Z,94201.66
2022-12-13T01:12:06.733Z,94205.50
2022-12-13T01:15:10.700Z,94207.16
2022-12-13T01:18:19.131Z,94202.31
2022-12-13T01:21:22.437Z,94201.75
2022-12-13T01:24:27.059Z,94211.00
2022-12-13T01:27:30.683Z,94216.50
2022-12-13T01:30:34.795Z,94221.50
2022-12-13T01:33:39.345Z,94216.50
2022-12-13T01:36:45.073Z,94228.91
2022-12-13T01:39:48.613Z,94229.94
2022-12-13T01:42:52.934Z,94230.06
2022-12-13T01:45:56.657Z,94227.66
2022-12-13T01:49:20.250Z,94228.34
2022-12-13T01:52:25.334Z,94235.00
2022-12-13T01:55:34.463Z,94232.47
2022-12-13T01:58:47.896Z,94223.66
2022-12-13T02:01:51.732Z,94231.09
2022-12-13T02:05:00.585Z,94232.00
2022-12-13T02:08:06.377Z,94232.31
2022-12-13T02:11:10.949Z,94232.59
2022-12-13T02:14:14.985Z,94223.19
2022-12-13T02:17:28.440Z,94232.38
2022-12-13T02:20:50.124Z,94231.31
2022-12-13T02:24:13.689Z,94236.63
2022-12-13T02:27:30.367Z,94237.13
2022-12-13T02:30:38.892Z,94241.03
2022-12-13T02:33:44.925Z,94244.91
2022-12-13T02:37:00.482Z,94238.50
2022-12-13T02:40:20.437Z,94238.06
2022-12-13T02:43:48.338Z,94235.69
2022-12-13T02:47:01.112Z,94228.41
2022-12-13T02:50:08.226Z,94232.03
2022-12-13T02:53:14.024Z,94230.09
2022-12-13T02:56:18.156Z,94225.81
2022-12-13T02:59:24.922Z,94218.06
2022-12-13T03:02:43.853Z,94220.66
2022-12-13T03:06:18.633Z,94217.09
2022-12-13T03:09:47.195Z,94209.28
2022-12-13T03:13:38.442Z,94193.09
2022-12-13T03:16:44.967Z,94193.31
2022-12-13T03:19:48.731Z,94193.84
2022-12-13T03:22:53.689Z,94191.72
2022-12-13T03:26:08.874Z,94183.19
2022-12-13T03:29:12.362Z,94178.09
2022-12-13T03:32:16.298Z,94177.56
2022-12-13T03:35:23.486Z,94177.75
2022-12-13T03:38:27.629Z,94176.63
2022-12-13T03:41:34.495Z,94173.91
2022-12-13T03:44:38.179Z,94174.00
2022-12-13T03:47:41.902Z,94169.25
2022-12-13T03:50:45.619Z,94171.09
2022-12-13T03:53:49.017Z,94169.19
2022-12-13T03:56:52.410Z,94174.59
2022-12-13T03:59:56.462Z,94162.81
2022-12-13T04:02:59.905Z,94163.75
2022-12-13T04:06:04.939Z,94165.78
2022-12-13T04:09:08.718Z,94154.47
2022-12-13T04:12:30.367Z,94154.97
2022-12-13T04:15:34.141Z,94156.28
2022-12-13T04:18:37.435Z,94157.72
2022-12-13T04:21:41.067Z,94153.94
2022-12-13T04:24:44.948Z,94147.53
2022-12-13T04:27:48.385Z,94155.81
2022-12-13T04:30:53.001Z,94148.28
2022-12-13T04:33:57.749Z,94150.31
2022-12-13T04:37:01.504Z,94144.78
2022-12-13T04:40:05.199Z,94138.47
2022-12-13T04:43:08.491Z,94136.91
2022-12-13T04:46:12.412Z,94131.91
2022-12-13T04:49:15.733Z,94135.91
2022-12-13T04:52:22.242Z,94130.91
2022-12-13T04:55:26.920Z,94122.16
2022-12-13T04:58:30.524Z,94120.56
2022-12-13T05:01:35.331Z,94118.53
2022-12-13T05:04:38.345Z,94117.34
2022-12-13T05:07:42.166Z,94119.19
2022-12-13T05:10:45.952Z,94117.81
2022-12-13T05:13:49.296Z,94117.63
2022-12-13T05:16:52.582Z,94102.75
2022-12-13T05:19:56.351Z,94105.28
2022-12-13T05:23:00.296Z,94097.53
2022-12-13T05:26:04.958Z,94101.38
2022-12-13T05:29:08.470Z,94099.41
2022-12-13T05:32:12.237Z,94097.44
2022-12-13T05:35:22.319Z,94103.81
2022-12-13T05:38:27.461Z,94091.91
2022-12-13T05:41:35.515Z,94085.53
2022-12-13T05:44:39.157Z,94088.84
2022-12-13T05:47:43.094Z,94086.28
2022-12-13T05:50:46.997Z,94080.34
2022-12-13T05:53:53.385Z,94076.19
2022-12-13T05:56:57.326Z,94081.59
2022-12-13T06:00:00.936Z,94083.56
2022-12-13T06:03:04.369Z,94078.63
2022-12-13T06:06:09.861Z,94078.00
2022-12-13T06:09:13.545Z,94075.69
2022-12-13T06:12:31.187Z,94074.66
2022-12-13T06:15:36.470Z,94073.28
2022-12-13T06:18:50.597Z,94074.00
2022-12-13T06:21:55.966Z,94072.31
2022-12-13T06:24:59.908Z,94061.34
2022-12-13T06:28:03.752Z,94064.88
2022-12-13T06:31:07.882Z,94068.84
2022-12-13T06:34:14.307Z,94060.50
2022-12-13T06:37:18.788Z,94071.09
2022-12-13T06:40:23.297Z,94069.66
2022-12-13T06:43:27.145Z,94076.09
2022-12-13T06:46:31.232Z,94071.38
2022-12-13T06:49:34.344Z,94069.41
2022-12-13T06:52:37.349Z,94074.59
2022-12-13T06:55:40.251Z,94073.41
2022-12-13T06:58:44.114Z,94068.19
2022-12-13T07:01:50.480Z,94070.41
2022-12-13T07:04:54.872Z,94067.53
2022-12-13T07:07:58.543Z,94074.38
2022-12-13T07:11:03.605Z,94075.34
2022-12-13T07:14:06.579Z,94072.88
2022-12-13T07:17:11.388Z,94068.44
2022-12-13T07:20:16.428Z,94075.88
2022-12-13T07:23:24.492Z,94074.91
2022-12-13T07:26:27.711Z,94074.91
2022-12-13T07:29:31.563Z,94075.41
2022-12-13T07:32:34.586Z,94082.13
2022-12-13T07:35:38.187Z,94079.88
2022-12-13T07:38:42.662Z,94081.91
2022-12-13T07:41:49.212Z,94078.00
2022-12-13T07:44:52.941Z,94085.09
2022-12-13T07:47:55.809Z,94083.81
2022-12-13T07:51:04.431Z,94087.22
2022-12-13T07:54:09.104Z,94084.47
2022-12-13T07:57:12.981Z,94088.22
2022-12-13T08:00:16.302Z,94083.28
2022-12-13T08:03:24.404Z,94089.19
2022-12-13T08:06:28.964Z,94086.91
2022-12-13T08:09:32.247Z,94091.31
2022-12-13T08:12:35.184Z,94091.47
2022-12-13T08:15:38.390Z,94085.53
2022-12-13T08:18:41.419Z,94084.22
2022-12-13T08:21:54.520Z,94083.75
2022-12-13T08:24:59.723Z,94090.06
2022-12-13T08:28:03.479Z,94093.00
2022-12-13T08:31:12.949Z,94085.00
2022-12-13T08:34:17.851Z,94107.94
2022-12-13T08:37:20.835Z,94107.06
2022-12-13T08:40:25.121Z,94098.31
2022-12-13T08:43:28.572Z,94103.63
2022-12-13T08:46:32.326Z,94106.41
2022-12-13T08:49:35.471Z,94101.38
2022-12-13T08:52:42.098Z,94100.84
2022-12-13T08:55:45.535Z,94102.56
2022-12-13T08:58:52.462Z,94106.66
2022-12-13T09:01:58.772Z,94103.84
2022-12-13T09:05:08.414Z,94111.53
2022-12-13T09:08:23.914Z,94103.59
2022-12-13T09:11:36.526Z,94113.44
2022-12-13T09:14:45.647Z,94118.09
2022-12-13T09:17:52.033Z,94122.69
2022-12-13T09:21:11.447Z,94117.00
2022-12-13T09:24:24.087Z,94120.22
2022-12-13T09:27:29.524Z,94117.34
2022-12-13T09:30:33.334Z,94112.94
2022-12-13T09:33:40.678Z,94110.63
2022-12-13T09:36:44.450Z,94114.50
2022-12-13T09:39:48.378Z,94124.41
2022-12-13T09:43:13.420Z,94116.53
2022-12-13T09:46:44.149Z,94112.91
2022-12-13T09:49:52.573Z,94115.59
2022-12-13T09:52:59.797Z,94116.06
2022-12-13T09:56:10.578Z,94117.50
2022-12-13T09:59:15.235Z,94123.06
2022-12-13T10:02:26.272Z,94130.06
2022-12-13T10:05:34.080Z,94132.91
2022-12-13T10:08:46.797Z,94132.22
2022-12-13T10:11:52.256Z,94134.88
2022-12-13T10:15:00.933Z,94132.69
2022-12-13T10:18:06.943Z,94124.41
2022-12-13T10:21:20.464Z,94129.84
2022-12-13T10:24:37.296Z,94129.06
2022-12-13T10:27:43.284Z,94135.38
2022-12-13T10:30:46.690Z,94134.31
2022-12-13T10:33:56.296Z,94134.09
2022-12-13T10:37:00.070Z,94129.69
2022-12-13T10:40:04.962Z,94129.34
2022-12-13T10:43:17.905Z,94124.91
2022-12-13T10:46:24.878Z,94127.38
2022-12-13T10:49:34.263Z,94126.59
2022-12-13T10:52:43.891Z,94131.94
2022-12-13T10:55:56.105Z,94128.22
2022-12-13T10:59:27.424Z,94122.88
2022-12-13T11:02:42.155Z,94125.03
2022-12-13T11:05:50.712Z,94126.19
2022-12-13T11:08:56.751Z,94121.72
2022-12-13T11:12:14.328Z,94119.31
2022-12-13T11:15:24.956Z,94114.03
2022-12-13T11:18:41.650Z,94119.66
2022-12-13T11:21:49.769Z,94120.84
2022-12-13T11:25:02.569Z,94125.66
2022-12-13T11:28:37.317Z,94122.63
2022-12-13T11:31:58.598Z,94118.78
2022-12-13T11:35:21.586Z,94122.84
2022-12-13T11:38:57.905Z,94120.22
2022-12-13T11:42:26.724Z,94120.75
2022-12-13T11:45:40.421Z,94121.66
2022-12-13T11:48:46.529Z,94121.31
2022-12-13T11:51:54.745Z,94124.28
2022-12-13T11:55:04.312Z,94111.50
2022-12-13T12:02:04.905Z,94122.47
2022-12-13T12:05:33.563Z,94118.25
2022-12-13T12:08:44.676Z,94125.34
2022-12-13T12:12:01.182Z,94124.25
2022-12-13T12:15:16.851Z,94123.88
2022-12-13T12:18:21.020Z,94114.59
2022-12-13T12:25:21.820Z,94122.50
2022-12-13T12:28:45.264Z,94124.22
2022-12-13T12:32:06.813Z,94113.28
2022-12-13T12:35:45.917Z,94119.47
2022-12-13T12:39:34.955Z,94115.16
2022-12-13T12:43:11.881Z,94122.59
2022-12-13T12:46:27.077Z,94126.47
2022-12-13T12:49:43.728Z,94121.22
2022-12-13T12:53:12.135Z,94119.59
2022-12-13T12:56:46.797Z,94115.75
2022-12-13T13:00:10.194Z,94125.63
2022-12-13T13:03:28.915Z,94124.94
2022-12-13T13:06:35.851Z,94116.91
2022-12-13T13:09:41.231Z,94116.56
2022-12-13T13:12:45.568Z,94115.44
2022-12-13T13:15:57.806Z,94109.25
2022-12-13T13:19:25.501Z,94121.13
2022-12-13T13:22:44.419Z,94121.34
2022-12-13T13:29:27.919Z,94118.91
2022-12-13T13:32:34.356Z,94116.34
2022-12-13T13:35:43.994Z,94116.63
2022-12-13T13:38:54.354Z,94112.94
2022-12-13T13:42:08.700Z,94113.50
2022-12-13T13:45:20.568Z,94123.44
2022-12-13T13:48:44.969Z,94128.22
2022-12-13T13:52:26.605Z,94127.25
2022-12-13T13:55:42.211Z,94128.16
2022-12-13T13:59:22.907Z,94132.56
2022-12-13T14:02:38.577Z,94130.84
2022-12-13T14:06:12.447Z,94131.22
2022-12-13T14:09:52.484Z,94128.44
2022-12-13T14:13:24.406Z,94130.16
2022-12-13T14:16:43.590Z,94133.72
2022-12-13T14:20:32.240Z,94127.06
2022-12-13T14:23:53.388Z,94127.47
2022-12-13T14:27:16.072Z,94123.91
2022-12-13T14:30:27.879Z,94125.75
2022-12-13T14:33:33.456Z,94126.72
2022-12-13T14:36:39.636Z,94129.75
2022-12-13T14:39:46.026Z,94124.06
2022-12-13T14:42:57.032Z,94124.03
2022-12-13T14:46:06.505Z,94130.63
2022-12-13T14:49:12.487Z,94126.09
2022-12-13T14:52:26.883Z,94129.06
2022-12-13T14:55:38.116Z,94133.69
2022-12-13T14:58:55.260Z,94135.91
2022-12-13T15:02:04.868Z,94133.47
2022-12-13T15:05:08.063Z,94127.09
2022-12-13T15:08:16.197Z,94132.72
2022-12-13T15:11:19.248Z,94133.78
2022-12-13T15:14:24.628Z,94132.50
2022-12-13T15:17:27.975Z,94128.31
2022-12-13T15:20:42.237Z,94134.50
2022-12-13T15:23:52.572Z,94140.22
2022-12-13T15:27:01.188Z,94127.03
2022-12-13T15:30:05.517Z,94127.44
2022-12-13T15:33:28.886Z,94129.41
2022-12-13T15:36:39.487Z,94129.41
2022-12-13T15:39:48.037Z,94127.72
2022-12-13T15:42:53.121Z,94127.88
2022-12-13T15:45:56.827Z,94125.59
2022-12-13T15:49:05.801Z,94127.47
2022-12-13T15:52:16.042Z,94118.34
2022-12-13T15:55:20.665Z,94107.53
2022-12-13T15:58:37.581Z,94107.16
2022-12-13T16:01:42.116Z,94104.91
2022-12-13T16:04:46.067Z,94105.03
2022-12-13T16:07:56.417Z,94105.91
2022-12-13T16:11:01.039Z,94098.66
2022-12-13T16:14:28.627Z,94094.34
2022-12-13T16:17:33.942Z,94102.97
2022-12-13T16:20:37.605Z,94100.16
2022-12-13T16:23:48.340Z,94090.72
2022-12-13T16:26:53.778Z,94104.91
2022-12-13T16:29:56.740Z,94093.47
2022-12-13T16:36:23.427Z,94096.97
2022-12-13T16:39:26.998Z,94092.56
2022-12-13T16:42:30.700Z,94089.31
2022-12-13T16:45:44.004Z,94094.44
2022-12-13T16:48:47.936Z,94097.03
2022-12-13T16:51:52.100Z,94099.91
2022-12-13T16:54:55.878Z,94097.75
2022-12-13T16:58:02.304Z,94105.16
2022-12-13T17:01:14.913Z,94100.16
2022-12-13T17:04:21.461Z,94104.88
2022-12-13T17:07:25.466Z,94107.75
2022-12-13T17:10:29.612Z,94105.91
2022-12-13T17:13:32.685Z,94105.34
2022-12-13T17:16:36.292Z,94112.22
2022-12-13T17:19:39.488Z,94116.25
2022-12-13T17:22:45.927Z,94118.06
2022-12-13T17:25:58.591Z,94114.94
2022-12-13T17:29:02.426Z,94120.19
2022-12-13T17:32:07.423Z,94107.44
2022-12-13T17:35:17.875Z,94110.69
2022-12-13T17:38:21.475Z,94113.75
2022-12-13T17:41:25.249Z,94105.59
2022-12-13T17:44:29.047Z,94109.41
2022-12-13T17:47:33.195Z,94113.09
2022-12-13T17:50:39.033Z,94118.25
2022-12-13T17:53:43.962Z,94115.84
2022-12-13T17:56:48.549Z,94107.31
2022-12-13T17:59:53.053Z,94118.03
2022-12-13T18:02:58.092Z,94118.94
2022-12-13T18:06:02.339Z,94119.75
2022-12-13T18:09:06.841Z,94128.72
2022-12-13T18:12:10.410Z,94124.38
2022-12-13T18:15:13.446Z,94122.22
2022-12-13T18:18:16.867Z,94121.81
2022-12-13T18:21:20.751Z,94128.38
2022-12-13T18:24:24.283Z,94123.38
2022-12-13T18:27:27.410Z,94128.56
2022-12-13T18:30:33.373Z,94126.81
2022-12-13T18:33:37.046Z,94135.75
2022-12-13T18:36:41.265Z,94139.16
2022-12-13T18:39:44.591Z,94139.56
2022-12-13T18:42:58.943Z,94133.13
2022-12-13T18:46:05.988Z,94135.44
2022-12-13T18:49:11.438Z,94142.28
2022-12-13T18:52:15.251Z,94141.94
2022-12-13T18:55:19.140Z,94136.97
2022-12-13T18:58:23.018Z,94137.22
2022-12-13T19:01:31.315Z,94136.47
2022-12-13T19:04:36.241Z,94123.81
2022-12-13T19:07:39.255Z,94124.06
2022-12-13T19:10:46.476Z,94118.63
2022-12-13T19:13:53.439Z,94135.47
2022-12-13T19:16:57.431Z,94128.13
2022-12-13T19:20:01.762Z,94119.38
2022-12-13T19:23:05.661Z,94125.88
2022-12-13T19:26:13.754Z,94131.75
2022-12-13T19:29:16.997Z,94134.47
2022-12-13T19:32:20.279Z,94125.59
2022-12-13T19:35:24.156Z,94125.25
2022-12-13T19:38:28.280Z,94128.38
2022-12-13T19:41:32.750Z,94129.53
2022-12-13T19:44:35.838Z,94139.31
2022-12-13T19:47:38.788Z,94137.47
2022-12-13T19:50:43.128Z,94139.97
2022-12-13T19:53:46.899Z,94136.94
2022-12-13T19:56:54.002Z,94136.25
2022-12-13T19:59:58.603Z,94135.38
2022-12-13T20:03:02.375Z,94137.47
2022-12-13T20:06:06.681Z,94137.72
2022-12-13T20:09:10.897Z,94140.31
2022-12-13T20:12:13.908Z,94137.13
2022-12-13T20:15:17.875Z,94141.66
2022-12-13T20:18:22.000Z,94141.66
2022-12-13T20:21:26.316Z,94144.25
2022-12-13T20:24:30.291Z,94143.63
2022-12-13T20:27:34.697Z,94138.81
2022-12-13T20:30:37.720Z,94140.63
2022-12-13T20:33:43.279Z,94135.59
2022-12-13T20:36:48.000Z,94130.59
2022-12-13T20:39:51.649Z,94129.53
2022-12-13T20:42:54.595Z,94130.28
2022-12-13T20:46:10.382Z,94132.69
2022-12-13T20:49:13.574Z,94140.59
2022-12-13T20:52:17.484Z,94135.78
2022-12-13T20:55:21.539Z,94140.97
2022-12-13T20:58:27.003Z,94127.56
2022-12-13T21:01:35.510Z,94139.72
2022-12-13T21:04:42.097Z,94154.41
2022-12-13T21:08:03.478Z,94151.44
2022-12-13T21:11:25.576Z,94143.31
2022-12-13T21:14:29.413Z,94144.53
2022-12-13T21:17:33.423Z,94140.53
2022-12-13T21:20:37.429Z,94146.84
2022-12-13T21:23:40.607Z,94141.69
2022-12-13T21:26:44.205Z,94136.34
2022-12-13T21:29:47.608Z,94142.00
2022-12-13T21:32:52.862Z,94138.94
2022-12-13T21:35:56.159Z,94148.97
2022-12-13T21:39:02.633Z,94152.69
2022-12-13T21:42:06.529Z,94159.50
2022-12-13T21:45:10.056Z,94156.69
2022-12-13T21:48:13.960Z,94153.56
2022-12-13T21:51:20.692Z,94148.72
2022-12-13T21:54:24.698Z,94157.47
2022-12-13T21:57:46.857Z,94159.00
2022-12-13T22:00:50.508Z,94154.59
2022-12-13T22:03:54.317Z,94155.19
2022-12-13T22:06:58.391Z,94163.63
2022-12-13T22:10:02.915Z,94161.06
2022-12-13T22:13:06.596Z,94166.50
2022-12-13T22:16:11.184Z,94167.31
2022-12-13T22:19:15.907Z,94175.00
2022-12-13T22:22:20.937Z,94174.03
2022-12-13T22:25:24.813Z,94167.63
2022-12-13T22:28:30.228Z,94163.56
2022-12-13T22:31:33.444Z,94172.94
2022-12-13T22:34:36.361Z,94165.50
2022-12-13T22:37:40.210Z,94165.97
2022-12-13T22:40:43.119Z,94157.78
2022-12-13T22:43:46.658Z,94157.84
2022-12-13T22:46:51.860Z,94162.25
2022-12-13T22:49:55.461Z,94171.91
2022-12-13T22:52:59.080Z,94182.94
2022-12-13T22:56:06.553Z,94180.72
2022-12-13T22:59:09.942Z,94179.22
2022-12-13T23:02:13.670Z,94183.09
2022-12-13T23:05:17.635Z,94184.66
2022-12-13T23:08:21.183Z,94187.69
2022-12-13T23:11:44.697Z,94185.91
2022-12-13T23:14:47.619Z,94194.75
2022-12-13T23:17:51.510Z,94193.75
2022-12-13T23:20:55.011Z,94205.31
2022-12-13T23:24:00.235Z,94204.63
2022-12-13T23:27:04.764Z,94196.91
2022-12-13T23:30:08.577Z,94200.41
2022-12-13T23:33:12.236Z,94194.81
2022-12-13T23:36:18.166Z,94202.28
2022-12-13T23:39:21.083Z,94206.69
2022-12-13T23:42:24.025Z,94215.75
2022-12-13T23:45:27.930Z,94215.75
2022-12-13T23:48:35.270Z,94222.13
2022-12-13T23:51:38.484Z,94224.56
2022-12-13T23:54:42.137Z,94227.00
2022-12-13T23:57:45.853Z,94223.94
